createdAt,value
2022-11-15T00:01:31.900Z,14.35
2022-11-15T00:03:58.970Z,14.02
2022-11-15T00:06:32.917Z,12.93
2022-11-15T00:09:00.959Z,12.13
2022-11-15T00:11:34.844Z,10.57
2022-11-15T00:14:03.524Z,11.38
2022-11-15T00:16:30.639Z,12.40
2022-11-15T00:19:04.867Z,12.38
2022-11-15T00:21:32.005Z,12.87
2022-11-15T00:24:06.864Z,13.38
2022-11-15T00:26:40.895Z,12.80
2022-11-15T00:29:14.927Z,12.00
2022-11-15T00:31:42.054Z,13.73
2022-11-15T00:34:16.881Z,13.73
2022-11-15T00:36:50.935Z,11.95
2022-11-15T00:39:30.871Z,31.27
2022-11-15T00:42:10.909Z,12.27
2022-11-15T00:44:44.839Z,15.23
2022-11-15T00:47:18.918Z,11.98
2022-11-15T00:49:52.904Z,15.35
2022-11-15T00:52:20.046Z,13.05
2022-11-15T00:54:53.909Z,12.27
2022-11-15T00:57:21.098Z,9.63
2022-11-15T00:59:54.868Z,11.25
2022-11-15T01:02:22.072Z,12.93
2022-11-15T01:04:55.896Z,12.57
2022-11-15T01:07:29.892Z,11.43
2022-11-15T01:10:03.920Z,9.30
2022-11-15T01:12:31.096Z,9.40
2022-11-15T01:15:04.901Z,14.35
2022-11-15T01:17:38.886Z,11.10
2022-11-15T01:20:13.888Z,10.05
2022-11-15T01:22:47.897Z,10.73
2022-11-15T01:25:21.873Z,12.23
2022-11-15T01:27:49.340Z,13.23
2022-11-15T01:30:22.905Z,11.23
2022-11-15T01:32:49.976Z,9.15
2022-11-15T01:35:23.926Z,10.10
2022-11-15T01:37:57.840Z,10.38
2022-11-15T01:40:37.956Z,9.65
2022-11-15T01:43:33.053Z,8.65
2022-11-15T01:46:40.927Z,10.48
2022-11-15T01:49:15.645Z,8.98
2022-11-15T01:51:48.946Z,7.90
2022-11-15T01:54:19.807Z,9.15
2022-11-15T01:57:00.903Z,9.07
2022-11-15T01:59:28.391Z,12.05
2022-11-15T02:02:01.877Z,11.07
2022-11-15T02:04:35.321Z,8.73
2022-11-15T02:07:11.913Z,7.63
2022-11-15T02:09:39.926Z,8.65
2022-11-15T02:12:16.917Z,9.90
2022-11-15T02:14:54.925Z,8.68
2022-11-15T02:17:36.187Z,7.75
2022-11-15T02:20:18.876Z,7.40
2022-11-15T02:23:15.898Z,7.75
2022-11-15T02:26:15.916Z,9.98
2022-11-15T02:29:30.891Z,8.30
2022-11-15T02:32:34.947Z,10.07
2022-11-15T02:35:17.039Z,8.38
2022-11-15T02:37:52.856Z,9.55
2022-11-15T02:41:04.081Z,8.88
2022-11-15T02:44:05.892Z,7.43
2022-11-15T02:47:19.572Z,8.57
2022-11-15T02:50:01.863Z,9.57
2022-11-15T02:52:29.046Z,8.60
2022-11-15T02:55:07.846Z,9.48
2022-11-15T02:57:52.977Z,8.68
2022-11-15T03:00:26.861Z,8.07
2022-11-15T03:03:21.113Z,9.13
2022-11-15T03:06:15.921Z,8.38
2022-11-15T03:09:18.900Z,6.80
2022-11-15T03:11:52.364Z,10.68
2022-11-15T03:14:33.941Z,9.48
2022-11-15T03:17:17.818Z,7.45
2022-11-15T03:19:57.937Z,11.23
2022-11-15T03:22:28.875Z,8.18
2022-11-15T03:25:06.940Z,10.02
2022-11-15T03:27:40.300Z,9.15
2022-11-15T03:30:15.866Z,10.45
2022-11-15T03:32:58.920Z,8.82
2022-11-15T03:35:30.094Z,7.68
2022-11-15T03:38:22.105Z,8.38
2022-11-15T03:41:12.890Z,8.30
2022-11-15T03:43:47.666Z,9.15
2022-11-15T03:46:25.885Z,8.18
2022-11-15T03:49:01.186Z,9.13
2022-11-15T03:51:34.990Z,7.63
2022-11-15T03:54:13.965Z,8.25
2022-11-15T03:56:47.901Z,10.02
2022-11-15T03:59:14.988Z,8.00
2022-11-15T04:01:48.887Z,9.43
2022-11-15T04:04:22.962Z,8.57
2022-11-15T04:06:50.111Z,9.02
2022-11-15T04:09:23.921Z,8.95
2022-11-15T04:11:51.014Z,6.28
2022-11-15T04:14:24.887Z,9.38
2022-11-15T04:16:52.112Z,9.35
2022-11-15T04:19:43.952Z,7.63
2022-11-15T04:22:35.910Z,7.20
2022-11-15T04:25:03.053Z,9.85
2022-11-15T04:27:30.217Z,8.68
2022-11-15T04:30:18.901Z,10.05
2022-11-15T04:32:52.625Z,8.88
2022-11-15T04:35:25.947Z,7.97
2022-11-15T04:37:59.912Z,8.48
2022-11-15T04:40:34.063Z,7.13
2022-11-15T04:43:07.907Z,8.77
2022-11-15T04:45:41.968Z,10.20
2022-11-15T04:48:09.041Z,7.68
2022-11-15T04:50:42.901Z,8.82
2022-11-15T04:53:09.990Z,9.70
2022-11-15T04:55:43.940Z,7.90
2022-11-15T04:58:17.946Z,9.90
2022-11-15T05:00:45.199Z,5.43
2022-11-15T05:03:37.932Z,7.22
2022-11-15T05:06:11.940Z,8.82
2022-11-15T05:08:39.028Z,8.95
2022-11-15T05:11:12.890Z,9.40
2022-11-15T05:13:39.969Z,12.43
2022-11-15T05:16:14.035Z,8.15
2022-11-15T05:18:41.800Z,7.78
2022-11-15T05:21:20.906Z,8.38
2022-11-15T05:23:48.029Z,7.75
2022-11-15T05:26:23.914Z,7.70
2022-11-15T05:29:05.935Z,10.00
2022-11-15T05:31:39.900Z,12.05
2022-11-15T05:34:07.275Z,9.73
2022-11-15T05:36:50.945Z,10.23
2022-11-15T05:39:24.719Z,7.95
2022-11-15T05:42:21.936Z,8.50
2022-11-15T05:44:50.814Z,10.50
2022-11-15T05:47:33.921Z,10.25
2022-11-15T05:50:07.901Z,9.52
2022-11-15T05:52:38.269Z,8.80
2022-11-15T05:55:14.954Z,9.00
2022-11-15T05:57:48.911Z,7.40
2022-11-15T06:00:16.197Z,11.30
2022-11-15T06:02:49.916Z,8.05
2022-11-15T06:05:23.940Z,8.82
2022-11-15T06:07:51.051Z,8.65
2022-11-15T06:10:25.940Z,7.43
2022-11-15T06:13:11.898Z,9.05
2022-11-15T06:15:39.087Z,8.00
2022-11-15T06:18:12.986Z,9.32
2022-11-15T06:20:40.160Z,9.35
2022-11-15T06:23:13.920Z,8.30
2022-11-15T06:25:41.036Z,9.32
2022-11-15T06:28:08.121Z,9.07
2022-11-15T06:30:41.980Z,7.68
2022-11-15T06:33:10.030Z,11.15
2022-11-15T06:35:44.957Z,9.85
2022-11-15T06:38:20.040Z,11.07
2022-11-15T06:43:27.520Z,17.38
2022-11-15T06:46:00.942Z,18.50
2022-11-15T06:48:29.501Z,19.60
2022-11-15T06:51:05.912Z,22.60
2022-11-15T06:53:34.311Z,23.02
2022-11-15T06:56:09.936Z,29.17
2022-11-15T06:58:37.661Z,23.80
2022-11-15T07:01:18.122Z,22.45
2022-11-15T07:03:46.522Z,24.83
2022-11-15T07:06:20.119Z,22.45
2022-11-15T07:08:47.286Z,18.63
2022-11-15T07:11:14.875Z,21.67
2022-11-15T07:13:48.950Z,23.08
2022-11-15T07:16:16.063Z,19.73
2022-11-15T07:18:49.890Z,23.80
2022-11-15T07:21:17.094Z,23.52
2022-11-15T07:23:44.144Z,23.75
2022-11-15T07:26:17.938Z,24.67
2022-11-15T07:28:45.098Z,24.40
2022-11-15T07:31:18.970Z,24.60
2022-11-15T07:33:52.953Z,26.17
2022-11-15T07:36:20.272Z,25.83
2022-11-15T07:38:53.914Z,26.80
2022-11-15T07:41:27.053Z,22.67
2022-11-15T07:44:01.079Z,22.75
2022-11-15T07:46:28.230Z,23.38
2022-11-15T07:49:01.970Z,28.60
2022-11-15T07:51:29.032Z,28.15
2022-11-15T07:54:02.974Z,27.42
2022-11-15T07:56:30.450Z,23.92
2022-11-15T07:59:04.939Z,29.90
2022-11-15T08:01:32.177Z,27.20
2022-11-15T08:04:05.975Z,24.02
2022-11-15T08:06:33.360Z,26.75
2022-11-15T08:09:07.008Z,26.05
2022-11-15T08:11:40.944Z,25.17
2022-11-15T08:14:08.100Z,25.77
2022-11-15T08:16:41.947Z,30.10
2022-11-15T08:19:08.988Z,23.67
2022-11-15T08:21:42.970Z,21.55
2022-11-15T08:24:12.180Z,22.27
2022-11-15T08:26:46.118Z,30.95
2022-11-15T08:29:13.371Z,33.03
2022-11-15T08:31:46.932Z,30.52
2022-11-15T08:34:14.065Z,30.00
2022-11-15T08:36:47.974Z,24.38
2022-11-15T08:39:21.974Z,28.15
2022-11-15T08:42:01.973Z,24.98
2022-11-15T08:44:29.156Z,19.80
2022-11-15T08:46:56.371Z,19.50
2022-11-15T08:49:30.970Z,17.63
2022-11-15T08:51:58.216Z,17.67
2022-11-15T08:54:31.914Z,20.20
2022-11-15T08:56:59.277Z,20.67
2022-11-15T08:59:32.989Z,17.05
2022-11-15T09:02:00.181Z,18.80
2022-11-15T09:04:34.087Z,17.23
2022-11-15T09:07:08.004Z,18.55
2022-11-15T09:09:35.136Z,20.65
2022-11-15T09:12:08.980Z,20.70
2022-11-15T09:14:36.138Z,22.05
2022-11-15T09:17:04.519Z,21.73
2022-11-15T09:19:39.002Z,22.90
2022-11-15T09:22:09.616Z,25.77
2022-11-15T09:24:43.930Z,25.48
2022-11-15T09:27:18.039Z,22.52
2022-11-15T09:29:51.980Z,22.63
2022-11-15T09:32:19.040Z,20.52
2022-11-15T09:34:46.666Z,23.65
2022-11-15T09:37:19.986Z,23.50
2022-11-15T09:39:54.075Z,23.95
2022-11-15T09:42:35.971Z,30.25
2022-11-15T09:45:33.939Z,24.27
2022-11-15T09:48:07.440Z,28.92
2022-11-15T09:50:54.980Z,22.17
2022-11-15T09:54:30.802Z,25.35
2022-11-15T09:56:45.089Z,22.77
2022-11-15T09:59:27.941Z,22.50
2022-11-15T10:02:22.635Z,22.20
2022-11-15T10:04:55.935Z,22.55
2022-11-15T10:07:46.151Z,24.98
2022-11-15T10:10:22.971Z,20.80
2022-11-15T10:13:00.029Z,25.75
2022-11-15T10:15:34.042Z,17.08
2022-11-15T10:18:23.101Z,20.27
2022-11-15T10:21:02.091Z,15.27
2022-11-15T10:23:30.251Z,20.05
2022-11-15T10:26:06.386Z,15.05
2022-11-15T10:28:41.045Z,14.00
2022-11-15T10:31:25.226Z,19.73
2022-11-15T10:34:05.031Z,14.10
2022-11-15T10:36:40.090Z,17.05
2022-11-15T10:42:08.329Z,17.52
2022-11-15T10:44:44.426Z,17.95
2022-11-15T10:47:41.037Z,13.45
2022-11-15T10:50:38.161Z,15.75
2022-11-15T10:53:19.954Z,15.50
2022-11-15T10:55:52.758Z,12.80
2022-11-15T10:58:52.036Z,18.95
2022-11-15T11:01:23.164Z,19.95
2022-11-15T11:04:08.948Z,15.15
2022-11-15T11:07:00.081Z,15.80
2022-11-15T11:09:46.006Z,16.17
2022-11-15T11:12:19.987Z,19.13
2022-11-15T11:14:47.083Z,15.85
2022-11-15T11:17:39.001Z,16.80
2022-11-15T11:20:15.297Z,13.10
2022-11-15T11:23:25.978Z,16.70
2022-11-15T11:26:16.893Z,15.90
2022-11-15T11:29:02.995Z,18.00
2022-11-15T11:31:42.203Z,20.70
2022-11-15T11:34:33.967Z,18.08
2022-11-15T11:37:26.702Z,16.17
2022-11-15T11:40:16.188Z,16.08
2022-11-15T11:42:55.242Z,23.95
2022-11-15T11:45:34.987Z,18.58
2022-11-15T11:48:21.615Z,19.75
2022-11-15T11:50:57.005Z,21.55
2022-11-15T11:53:40.500Z,24.52
2022-11-15T11:56:29.985Z,19.60
2022-11-15T11:59:08.030Z,17.75
2022-11-15T12:01:51.154Z,26.38
2022-11-15T12:04:43.660Z,21.27
2022-11-15T12:07:25.053Z,20.58
2022-11-15T12:10:19.954Z,24.10
2022-11-15T12:13:09.081Z,21.50
2022-11-15T12:15:49.028Z,20.45
2022-11-15T12:18:17.552Z,18.40
2022-11-15T12:21:13.013Z,17.67
2022-11-15T12:23:51.305Z,18.02
2022-11-15T12:26:33.013Z,14.13
2022-11-15T12:29:08.111Z,15.95
2022-11-15T12:31:43.015Z,19.27
2022-11-15T12:34:22.109Z,17.60
2022-11-15T12:36:57.971Z,18.90
2022-11-15T12:40:21.997Z,22.75
2022-11-15T12:43:20.983Z,24.77
2022-11-15T12:45:54.989Z,18.92
2022-11-15T12:48:44.101Z,18.50
2022-11-15T12:51:11.269Z,18.48
2022-11-15T12:53:39.074Z,17.58
2022-11-15T12:56:18.034Z,15.20
2022-11-15T12:58:49.703Z,15.00
2022-11-15T13:01:39.127Z,12.38
2022-11-15T13:04:21.143Z,12.95
2022-11-15T13:07:11.083Z,14.20
2022-11-15T13:09:38.299Z,16.70
2022-11-15T13:12:15.161Z,18.08
2022-11-15T13:14:45.901Z,16.15
2022-11-15T13:17:39.141Z,14.57
2022-11-15T13:20:09.562Z,18.67
2022-11-15T13:23:12.033Z,16.98
2022-11-15T13:25:59.300Z,17.17
2022-11-15T13:28:47.100Z,13.90
2022-11-15T13:31:41.691Z,13.20
2022-11-15T13:34:56.251Z,13.15
2022-11-15T13:37:30.060Z,12.90
2022-11-15T13:40:49.021Z,13.40
2022-11-15T13:43:35.085Z,13.70
2022-11-15T13:46:33.020Z,12.38
2022-11-15T13:49:14.030Z,13.63
2022-11-15T13:51:56.062Z,9.32
2022-11-15T13:54:43.155Z,12.73
2022-11-15T13:57:25.091Z,14.35
2022-11-15T13:59:56.720Z,14.93
2022-11-15T14:02:40.100Z,18.92
2022-11-15T14:05:22.421Z,17.88
2022-11-15T14:08:30.420Z,18.13
2022-11-15T14:11:17.947Z,15.02
2022-11-15T14:14:16.031Z,15.35
2022-11-15T14:16:49.000Z,14.43
2022-11-15T14:19:29.091Z,15.10
2022-11-15T14:22:17.061Z,14.18
2022-11-15T14:25:13.096Z,15.18
2022-11-15T14:27:41.601Z,15.90
2022-11-15T14:30:23.071Z,15.48
2022-11-15T14:32:51.880Z,16.02
2022-11-15T14:35:31.071Z,15.80
2022-11-15T14:38:00.382Z,15.40
2022-11-15T14:40:33.996Z,16.65
2022-11-15T14:43:13.740Z,14.18
2022-11-15T14:45:48.058Z,14.70
2022-11-15T14:48:18.264Z,12.93
2022-11-15T14:50:52.985Z,15.48
2022-11-15T14:53:21.055Z,13.57
2022-11-15T14:55:55.003Z,17.05
2022-11-15T14:58:22.134Z,15.38
2022-11-15T15:00:56.008Z,12.95
2022-11-15T15:03:23.109Z,13.45
2022-11-15T15:05:57.081Z,13.45
2022-11-15T15:08:24.188Z,12.95
2022-11-15T15:10:51.289Z,17.38
2022-11-15T15:13:31.053Z,14.40
2022-11-15T15:16:00.326Z,14.90
2022-11-15T15:18:34.124Z,16.95
2022-11-15T15:21:08.460Z,18.63
2022-11-15T15:23:42.977Z,13.88
2022-11-15T15:26:17.005Z,14.68
2022-11-15T15:28:44.375Z,19.45
2022-11-15T15:31:18.964Z,17.15
2022-11-15T15:33:53.078Z,18.40
2022-11-15T15:36:20.538Z,21.03
2022-11-15T15:38:54.987Z,16.95
2022-11-15T15:41:29.238Z,17.48
2022-11-15T15:44:05.377Z,16.40
2022-11-15T15:46:32.696Z,20.55
2022-11-15T15:49:07.116Z,21.42
2022-11-15T15:51:34.346Z,18.23
2022-11-15T15:54:08.030Z,17.55
2022-11-15T15:56:42.198Z,18.48
2022-11-15T15:59:16.098Z,15.13
2022-11-15T16:01:43.649Z,16.67
2022-11-15T16:04:10.744Z,15.07
2022-11-15T16:06:47.128Z,21.73
2022-11-15T16:09:18.814Z,17.65
2022-11-15T16:11:54.038Z,16.17
2022-11-15T16:14:24.085Z,19.98
2022-11-15T16:16:58.045Z,19.80
2022-11-15T16:19:25.376Z,21.88
2022-11-15T16:22:02.115Z,14.23
2022-11-15T16:24:29.306Z,15.73
2022-11-15T16:27:04.065Z,21.90
2022-11-15T16:29:31.318Z,14.18
2022-11-15T16:32:05.000Z,13.60
2022-11-15T16:34:36.020Z,15.75
2022-11-15T16:37:28.749Z,14.35
2022-11-15T16:40:05.626Z,15.68
2022-11-15T16:42:47.830Z,18.63
2022-11-15T16:45:22.021Z,17.10
2022-11-15T16:47:49.162Z,17.20
2022-11-15T16:50:32.990Z,16.38
2022-11-15T16:53:00.375Z,16.75
2022-11-15T16:55:36.040Z,15.13
2022-11-15T16:58:10.018Z,16.60
2022-11-15T17:00:37.167Z,17.52
2022-11-15T17:03:05.046Z,16.55
2022-11-15T17:05:39.021Z,14.80
2022-11-15T17:08:06.628Z,12.48
2022-11-15T17:10:41.031Z,15.65
2022-11-15T17:13:13.974Z,18.00
2022-11-15T17:15:48.008Z,13.43
2022-11-15T17:18:22.002Z,11.65
2022-11-15T17:20:49.226Z,12.77
2022-11-15T17:23:23.168Z,10.32
2022-11-15T17:26:28.158Z,10.68
2022-11-15T17:29:04.013Z,11.77
2022-11-15T17:31:40.019Z,12.30
2022-11-15T17:34:07.617Z,13.40
2022-11-15T17:36:43.850Z,13.02
2022-11-15T17:39:11.013Z,14.07
2022-11-15T17:41:52.009Z,12.82
2022-11-15T17:44:25.809Z,12.85
2022-11-15T17:46:59.074Z,13.60
2022-11-15T17:49:26.990Z,10.40
2022-11-15T17:51:54.465Z,14.90
2022-11-15T17:54:28.622Z,13.35
2022-11-15T17:56:55.698Z,16.03
2022-11-15T17:59:29.032Z,10.80
2022-11-15T18:01:56.246Z,15.25
2022-11-15T18:04:28.493Z,11.18
2022-11-15T18:07:03.114Z,13.27
2022-11-15T18:09:37.128Z,11.80
2022-11-15T18:12:04.763Z,14.00
2022-11-15T18:14:38.028Z,14.20
2022-11-15T18:17:05.240Z,14.60
2022-11-15T18:19:39.241Z,11.55
2022-11-15T18:22:09.950Z,13.32
2022-11-15T18:24:48.141Z,16.10
2022-11-15T18:27:15.390Z,15.63
2022-11-15T18:29:52.078Z,15.05
2022-11-15T18:32:19.282Z,13.98
2022-11-15T18:34:53.135Z,14.43
2022-11-15T18:37:20.241Z,11.10
2022-11-15T18:40:01.092Z,12.70
2022-11-15T18:42:41.166Z,13.82
2022-11-15T18:45:09.992Z,15.73
2022-11-15T18:47:45.066Z,11.65
2022-11-15T18:52:56.213Z,15.13
2022-11-15T18:55:23.470Z,15.05
2022-11-15T18:57:57.136Z,11.20
2022-11-15T19:00:24.606Z,11.57
2022-11-15T19:03:01.081Z,9.68
2022-11-15T19:05:28.903Z,9.02
2022-11-15T19:08:03.202Z,8.48
2022-11-15T19:10:30.315Z,10.60
2022-11-15T19:13:04.091Z,8.55
2022-11-15T19:15:31.760Z,9.25
2022-11-15T19:17:59.274Z,8.73
2022-11-15T19:20:33.175Z,9.32
2022-11-15T19:23:07.143Z,9.32
2022-11-15T19:25:34.680Z,10.02
2022-11-15T19:28:01.768Z,11.43
2022-11-15T19:30:35.095Z,15.25
2022-11-15T19:33:09.029Z,11.77
2022-11-15T19:35:36.116Z,13.40
2022-11-15T19:38:10.066Z,12.38
2022-11-15T19:40:43.998Z,11.98
2022-11-15T19:43:17.189Z,11.73
2022-11-15T19:45:51.041Z,11.02
2022-11-15T19:48:18.072Z,9.48
2022-11-15T19:50:45.197Z,8.07
2022-11-15T19:53:19.049Z,8.20
2022-11-15T19:56:11.044Z,7.75
2022-11-15T19:58:45.044Z,8.25
2022-11-15T20:01:28.024Z,8.02
2022-11-15T20:04:05.064Z,9.70
2022-11-15T20:06:35.455Z,5.95
2022-11-15T20:09:10.040Z,7.90
2022-11-15T20:11:45.054Z,8.48
2022-11-15T20:16:52.966Z,6.80
2022-11-15T20:19:26.667Z,7.63
2022-11-15T20:22:00.042Z,7.50
2022-11-15T20:24:28.409Z,5.97
2022-11-15T20:27:02.031Z,6.10
2022-11-15T20:29:36.044Z,6.97
2022-11-15T20:32:03.194Z,7.40
2022-11-15T20:34:37.053Z,6.70
2022-11-15T20:37:04.263Z,8.15
2022-11-15T20:39:38.128Z,7.35
2022-11-15T20:42:18.086Z,7.00
2022-11-15T20:44:52.363Z,5.00
2022-11-15T20:47:30.152Z,7.73
2022-11-15T20:50:27.688Z,11.18
2022-11-15T20:52:51.692Z,7.85
2022-11-15T20:55:27.065Z,7.97
2022-11-15T20:57:54.437Z,7.63
2022-11-15T21:00:32.086Z,6.15
2022-11-15T21:02:59.178Z,8.10
2022-11-15T21:05:26.371Z,5.93
2022-11-15T21:08:00.155Z,9.55
2022-11-15T21:11:05.470Z,6.63
2022-11-15T21:13:39.101Z,7.13
2022-11-15T21:16:13.114Z,8.10
2022-11-15T21:18:40.273Z,7.53
2022-11-15T21:21:14.073Z,7.35
2022-11-15T21:23:48.028Z,7.38
2022-11-15T21:26:23.088Z,9.07
2022-11-15T21:31:24.218Z,7.90
2022-11-15T21:33:58.040Z,7.20
2022-11-15T21:36:32.281Z,8.73
2022-11-15T21:39:06.051Z,7.00
2022-11-15T21:41:46.130Z,9.10
2022-11-15T21:44:20.321Z,11.27
2022-11-15T21:46:54.079Z,6.80
2022-11-15T21:49:29.045Z,10.18
2022-11-15T21:51:56.146Z,6.53
2022-11-15T21:54:30.067Z,10.13
2022-11-15T21:56:57.171Z,8.60
2022-11-15T21:59:31.076Z,8.93
2022-11-15T22:02:23.095Z,9.30
2022-11-15T22:04:50.356Z,7.82
2022-11-15T22:07:24.208Z,7.07
2022-11-15T22:09:58.156Z,8.30
2022-11-15T22:12:32.155Z,6.82
2022-11-15T22:14:59.400Z,9.63
2022-11-15T22:17:53.124Z,7.93
2022-11-15T22:20:43.669Z,8.77
2022-11-15T22:23:14.036Z,10.63
2022-11-15T22:25:48.076Z,8.43
2022-11-15T22:28:15.325Z,10.93
2022-11-15T22:30:51.087Z,8.77
2022-11-15T22:33:26.154Z,8.05
2022-11-15T22:38:28.066Z,8.07
2022-11-15T22:41:09.068Z,7.40
2022-11-15T22:43:38.935Z,7.00
2022-11-15T22:46:06.236Z,6.00
2022-11-15T22:48:44.129Z,6.45
2022-11-15T22:51:11.402Z,7.20
2022-11-15T22:53:45.121Z,7.43
2022-11-15T22:56:16.285Z,6.45
2022-11-15T22:58:53.180Z,5.53
2022-11-15T23:01:29.092Z,7.15
2022-11-15T23:03:56.359Z,7.03
2022-11-15T23:06:30.088Z,7.35
2022-11-15T23:09:00.082Z,4.72
2022-11-15T23:11:53.037Z,5.15
2022-11-15T23:14:21.409Z,6.00
2022-11-15T23:16:55.064Z,5.68
2022-11-15T23:19:29.125Z,5.20
2022-11-15T23:22:21.063Z,5.28
2022-11-15T23:24:48.360Z,7.45
2022-11-15T23:27:27.075Z,7.50
2022-11-15T23:30:19.069Z,6.50
2022-11-15T23:33:11.047Z,4.43
2022-11-15T23:35:45.170Z,6.85
2022-11-15T23:38:19.114Z,4.95
2022-11-15T23:41:02.102Z,4.72
2022-11-15T23:43:36.243Z,4.53
2022-11-15T23:46:10.209Z,4.50
2022-11-15T23:48:37.398Z,5.43
2022-11-15T23:51:11.076Z,4.25
2022-11-15T23:53:38.924Z,4.53
2022-11-15T23:56:21.091Z,4.50
2022-11-15T23:58:48.983Z,4.35
